Time;durP1;ratioP1;P1;durP2;ratioP2;P2;SDS_P1;SDS_P2;PMS_P1;PMS_P2;Temp;Humidity;BMP_temperature;BMP_pressure;BME280_temperature;BME280_humidity;BME280_pressure;Samples;Min_cycle;Max_cycle;Signal;HPM_P1;HPM_P2
2024/03/11 00:02:27;;;;;;;45.58;25.75;;;;;;;-144.05;72.13;56955.03;5065738;28;20047;-76
2024/03/11 00:04:54;;;;;;;48.65;27.80;;;;;;;-144.05;72.76;56957.16;5050960;28;20379;-77
2024/03/11 00:07:20;;;;;;;44.20;28.58;;;11.10;99.90;;;-144.05;72.66;56938.03;5049896;28;20025;-77
2024/03/11 00:09:48;;;;;;;44.13;27.95;;;10.90;99.90;;;-144.05;72.97;56927.41;5049981;28;20509;-79
2024/03/11 00:12:22;;;;;;;45.63;27.77;;;11.00;99.90;;;-144.05;73.11;56959.28;5050957;28;20029;-78
2024/03/11 00:14:51;;;;;;;45.35;27.60;;;6.90;99.90;;;-144.05;73.58;56972.03;5050691;28;20028;-77
2024/03/11 00:17:19;;;;;;;43.72;28.58;;;7.00;99.90;;;-144.05;73.69;56955.03;5048337;28;20098;-81
2024/03/11 00:19:46;;;;;;;46.17;28.65;;;;;;;-144.05;74.22;56944.41;5050200;28;20032;-76
2024/03/11 00:22:11;;;;;;;43.33;27.42;;;7.60;99.90;;;-144.05;74.65;56944.41;5049780;28;20538;-79
2024/03/11 00:24:38;;;;;;;48.40;28.88;;;6.90;99.90;;;-144.05;74.90;56942.28;5044315;28;20056;-79
2024/03/11 00:27:07;;;;;;;46.45;29.63;;;;;;;-144.05;75.98;56974.16;5046867;28;20385;-77
2024/03/11 00:29:35;;;;;;;46.50;28.13;;;8.90;99.90;;;-144.05;76.08;56940.16;5049886;28;20021;-77
2024/03/11 00:32:03;;;;;;;49.55;28.60;;;7.30;99.90;;;-144.05;76.64;56938.03;5050543;28;20029;-77
2024/03/11 00:34:29;;;;;;;47.63;29.88;;;7.60;99.90;;;-144.05;77.29;56974.16;5049598;28;20021;-77
2024/03/11 00:36:55;;;;;;;46.90;29.23;;;;;;;-144.05;78.26;56950.78;5050657;28;20505;-79
2024/03/11 00:39:22;;;;;;;46.63;29.35;;;;;;;-144.05;78.98;56974.16;5065129;28;20053;-79
2024/03/11 00:41:51;;;;;;;48.38;29.75;;;;;;;-144.05;79.25;56961.41;5048917;28;20021;-77
2024/03/11 00:44:21;;;;;;;51.22;30.45;;;6.50;99.90;;;-144.05;79.69;56940.16;5049877;28;20028;-79
2024/03/11 00:46:51;;;;;;;56.70;32.58;;;7.80;99.90;;;-144.05;80.49;56946.53;5050085;28;20108;-80
2024/03/11 00:49:21;;;;;;;57.80;32.80;;;8.00;99.90;;;-144.05;80.61;56950.78;5049852;28;20102;-77
2024/03/11 00:51:48;;;;;;;51.25;31.58;;;8.50;99.90;;;-144.05;80.83;56963.53;5050263;28;20109;-79
2024/03/11 00:54:14;;;;;;;57.42;33.95;;;7.70;99.90;;;-144.05;81.26;56942.28;5050097;28;20049;-79
2024/03/11 00:56:40;;;;;;;52.15;31.27;;;;;;;-144.05;81.86;56961.41;5053498;28;20017;-79
2024/03/11 00:59:07;;;;;;;55.45;33.83;;;;;;;-144.05;82.54;56959.28;5054457;28;20104;-80
2024/03/11 01:01:32;;;;;;;55.28;32.58;;;6.60;99.90;;;-144.05;81.76;56938.03;5053959;28;20052;-79
2024/03/11 01:03:58;;;;;;;59.67;33.33;;;6.90;99.90;;;-144.05;82.66;56929.53;5053185;28;20484;-80
2024/03/11 01:06:28;;;;;;;51.53;32.30;;;;;;;-144.05;83.42;56959.28;5054237;28;20100;-77
2024/03/11 01:08:56;;;;;;;56.28;33.80;;;7.10;99.90;;;-144.05;83.66;56957.16;5054257;28;20048;-79
2024/03/11 01:11:23;;;;;;;56.83;32.60;;;7.80;99.90;;;-144.05;83.81;56967.78;5053068;28;20036;-77
2024/03/11 01:13:49;;;;;;;51.63;33.22;;;7.10;99.90;;;-144.05;84.44;56955.03;5052895;28;20044;-79
2024/03/11 01:16:15;;;;;;;58.13;33.40;;;6.70;99.90;;;-144.05;84.86;56978.41;5069378;28;20402;-80
2024/03/11 01:18:41;;;;;;;49.72;30.52;;;;;;;-144.05;85.96;56944.41;5054507;28;20094;-78
2024/03/11 01:21:07;;;;;;;52.17;31.05;;;6.90;99.90;;;-144.05;85.79;56976.28;5055682;28;20471;-78
2024/03/11 01:23:33;;;;;;;57.50;33.17;;;8.30;99.90;;;-144.05;86.18;56942.28;5049260;28;20075;-77
2024/03/11 01:26:00;;;;;;;59.47;33.83;;;6.90;99.90;;;-144.05;86.40;56950.78;5044534;28;20025;-78
2024/03/11 01:28:25;;;;;;;60.35;33.70;;;8.30;99.90;;;-144.05;87.05;56948.66;5051742;28;20031;-77
2024/03/11 01:30:52;;;;;;;59.28;34.42;;;;;;;-144.05;87.52;56952.91;5034990;28;20108;-80
2024/03/11 01:33:18;;;;;;;54.70;32.75;;;7.00;99.90;;;-144.05;88.46;56969.91;5033702;28;20025;-79
2024/03/11 01:35:44;;;;;;;58.47;35.42;;;7.10;99.90;;;-144.05;89.04;56942.28;5038023;28;20546;-80
2024/03/11 01:38:10;;;;;;;58.90;34.28;;;;;;;-144.05;89.25;56963.53;5033232;28;20029;-77
2024/03/11 01:40:36;;;;;;;60.30;34.63;;;6.20;99.90;;;-144.05;89.88;56965.66;5033578;28;20022;-78
2024/03/11 01:43:03;;;;;;;59.25;33.20;;;7.00;99.90;;;-144.05;89.91;56948.66;5034203;28;20032;-77
2024/03/11 01:45:32;;;;;;;63.20;35.20;;;;;;;-144.05;90.47;56976.28;5037294;28;20045;-79
2024/03/11 01:47:59;;;;;;;59.67;34.22;;;;;;;-144.05;90.40;56972.03;5038867;28;20033;-77
2024/03/11 01:50:26;;;;;;;61.83;36.08;;;8.50;99.90;;;-144.05;90.97;56961.41;5033092;28;20030;-78
2024/03/11 01:52:56;;;;;;;67.30;37.92;;;6.50;99.90;;;-144.05;90.99;56944.41;5034879;28;20060;-77
2024/03/11 01:55:25;;;;;;;65.15;38.03;;;8.10;99.90;;;-144.05;91.06;56933.78;5042620;28;20030;-80
2024/03/11 01:57:59;;;;;;;64.38;35.50;;;6.10;99.90;;;-144.05;91.64;56942.28;5059488;28;20037;-80
2024/03/11 02:00:26;;;;;;;59.80;34.85;;;6.90;99.90;;;-144.05;91.60;56978.41;5040598;28;20042;-80
2024/03/11 02:02:53;;;;;;;57.70;34.22;;;6.90;99.90;;;-144.05;91.83;56948.66;5036901;28;20034;-78
2024/03/11 02:05:26;;;;;;;67.22;37.22;;;7.60;99.90;;;-144.05;92.06;56938.03;5038478;28;20483;-77
2024/03/11 02:08:01;;;;;;;61.47;35.45;;;7.60;99.90;;;-144.05;91.93;56965.66;5033483;28;20411;-78
2024/03/11 02:10:40;;;;;;;62.67;38.20;;;6.90;99.90;;;-144.05;92.48;56959.28;5034773;28;20506;-78
2024/03/11 02:13:07;;;;;;;66.72;38.25;;;;;;;-144.05;92.44;56957.16;5034336;28;20057;-76
2024/03/11 02:15:33;;;;;;;65.65;37.20;;;6.80;99.90;;;-144.05;92.44;56942.28;5034205;28;20030;-79
2024/03/11 02:18:00;;;;;;;63.72;37.60;;;;;;;-144.05;93.01;56976.28;5034140;28;20500;-77
2024/03/11 02:20:27;;;;;;;67.07;36.53;;;8.50;99.90;;;-144.05;92.87;56950.78;5034869;28;20396;-80
2024/03/11 02:22:56;;;;;;;68.47;38.53;;;8.30;99.90;;;-144.05;92.99;56946.53;5037030;28;20021;-80
2024/03/11 02:25:28;;;;;;;68.20;39.70;;;6.70;99.90;;;-144.05;93.27;56946.53;5033833;28;20109;-79
2024/03/11 02:27:58;;;;;;;65.75;39.15;;;8.40;99.90;;;-144.05;93.40;56961.41;5034146;28;20044;-79
2024/03/11 02:30:25;;;;;;;70.68;37.85;;;6.80;99.90;;;-144.05;93.49;56938.03;5034380;28;20053;-79
2024/03/11 02:32:52;;;;;;;74.20;39.72;;;;;;;-144.05;93.55;56976.28;5032597;28;20030;-77
2024/03/11 02:35:18;;;;;;;69.15;38.90;;;7.20;99.90;;;-144.05;93.80;56925.28;5034529;28;20063;-77
2024/03/11 02:37:45;;;;;;;73.80;40.55;;;6.60;99.90;;;-144.05;93.67;56961.41;5034001;28;20025;-77
2024/03/11 02:40:14;;;;;;;65.95;37.33;;;7.70;99.90;;;-144.05;93.93;56957.16;5034144;28;20502;-77
2024/03/11 02:42:41;;;;;;;68.85;37.45;;;6.40;99.90;;;-144.05;93.83;56978.41;5033756;28;20430;-79
2024/03/11 02:45:13;;;;;;;69.63;38.05;;;7.50;99.90;;;-144.05;94.04;56931.66;5032411;28;20109;-77
2024/03/11 02:47:40;;;;;;;68.80;39.33;;;;;;;-144.05;94.14;56959.28;5033715;28;20079;-78
2024/03/11 02:50:10;;;;;;;75.70;41.78;;;7.80;99.90;;;-144.05;94.62;56972.03;5033979;28;20083;-79
2024/03/11 02:52:36;;;;;;;76.93;42.95;;;;;;;-144.05;94.99;56952.91;5033654;28;20037;-77
2024/03/11 02:55:05;;;;;;;64.47;36.85;;;;;;;-144.05;94.81;56980.53;5033618;28;20080;-78
2024/03/11 02:57:34;;;;;;;71.18;38.58;;;7.30;99.90;;;-144.05;94.95;56952.91;5034159;28;20032;-78
2024/03/11 03:00:01;;;;;;;70.97;40.05;;;6.60;99.90;;;-144.05;94.57;56976.28;5032022;28;20025;-79
2024/03/11 03:02:27;;;;;;;73.75;40.35;;;;;;;-144.05;94.87;56959.28;5033846;28;20033;-79
2024/03/11 03:04:55;;;;;;;73.10;38.92;;;;;;;-144.05;94.46;56963.53;5042590;28;20040;-78
2024/03/11 03:07:24;;;;;;;73.43;40.53;;;;;;;-144.05;94.54;56950.78;5034189;28;20029;-79
2024/03/11 03:09:50;;;;;;;70.63;40.72;;;7.00;99.90;;;-144.05;94.85;56965.66;5033924;28;20444;-78
2024/03/11 03:12:18;;;;;;;73.75;41.03;;;8.60;99.90;;;-144.05;95.12;56938.03;5035843;28;20038;-77
2024/03/11 03:14:44;;;;;;;74.40;40.28;;;6.70;99.90;;;-144.05;95.21;56955.03;5033377;28;20031;-76
2024/03/11 03:17:10;;;;;;;74.72;40.38;;;6.70;99.90;;;-144.05;95.52;56955.03;5032693;28;20040;-77
2024/03/11 03:19:36;;;;;;;72.57;38.63;;;;;;;-144.05;95.34;56969.91;5033178;28;20133;-78
2024/03/11 03:22:02;;;;;;;76.22;40.47;;;6.60;99.90;;;-144.05;94.56;56957.16;5033770;28;20017;-78
2024/03/11 03:24:28;;;;;;;74.10;40.88;;;6.80;99.90;;;-144.05;94.62;56950.78;5032894;28;20414;-79
2024/03/11 03:26:54;;;;;;;72.38;39.75;;;7.70;99.90;;;-144.05;94.62;56942.28;5032544;28;20029;-77
2024/03/11 03:29:20;;;;;;;69.13;39.22;;;7.40;99.90;;;-144.05;94.82;56912.56;5034209;28;20021;-78
2024/03/11 03:31:46;;;;;;;71.13;41.20;;;;;;;-144.05;94.50;56929.53;5033533;28;20028;-78
2024/03/11 03:34:13;;;;;;;75.72;40.95;;;6.60;99.90;;;-144.05;94.46;56948.66;5034788;28;20084;-78
2024/03/11 03:36:38;;;;;;;77.90;42.08;;;7.10;99.90;;;-144.05;94.61;56923.19;5033425;28;20433;-78
2024/03/11 03:39:08;;;;;;;71.00;38.47;;;;;;;-144.05;94.90;56950.78;5032185;28;20029;-79
2024/03/11 03:41:36;;;;;;;72.13;38.72;;;7.10;99.90;;;-144.05;94.72;56944.41;5032637;28;20108;-81
2024/03/11 03:44:04;;;;;;;68.68;38.05;;;6.90;99.90;;;-144.05;95.00;56961.41;5034086;28;20024;-81
2024/03/11 03:46:30;;;;;;;72.95;39.03;;;7.60;99.90;;;-144.05;95.13;56921.06;5035922;28;20021;-79
2024/03/11 03:48:58;;;;;;;74.18;39.70;;;;;;;-144.05;94.97;56961.41;5035014;28;20056;-78
2024/03/11 03:51:24;;;;;;;74.70;40.08;;;;;;;-144.05;94.90;56938.03;5035049;28;20056;-80
2024/03/11 03:53:51;;;;;;;67.28;38.25;;;6.90;99.90;;;-144.05;95.17;56942.28;5033736;28;20056;-78
2024/03/11 03:56:17;;;;;;;69.88;37.95;;;6.10;99.90;;;-144.05;95.45;56965.66;5034567;28;20079;-79
2024/03/11 03:58:44;;;;;;;67.38;37.50;;;;;;;-144.05;95.32;56946.53;5033718;28;20033;-78
2024/03/11 04:01:10;;;;;;;68.20;38.50;;;7.60;99.90;;;-144.05;95.33;56935.91;5033982;28;20270;-78
2024/03/11 04:03:36;;;;;;;71.93;37.58;;;8.20;99.90;;;-144.05;95.25;56940.16;5033946;28;20040;-79
2024/03/11 04:06:06;;;;;;;68.70;37.60;;;6.80;99.90;;;-144.05;95.58;56927.41;5033701;28;20017;-77
2024/03/11 04:08:32;;;;;;;70.70;38.58;;;6.40;99.90;;;-144.05;95.35;56972.03;5032623;28;20033;-76
2024/03/11 04:10:58;;;;;;;76.55;40.13;;;8.50;99.90;;;-144.05;95.33;56955.03;5033441;28;20263;-78
2024/03/11 04:13:26;;;;;;;72.18;39.55;;;7.40;99.90;;;-144.05;95.43;56961.41;5041529;28;20025;-79
2024/03/11 04:15:56;;;;;;;74.72;40.88;;;;;;;-144.05;95.83;56940.16;5034483;28;20117;-79
2024/03/11 04:18:25;;;;;;;73.97;39.80;;;;;;;-144.05;95.88;56963.53;5033146;28;20037;-77
2024/03/11 04:20:55;;;;;;;67.65;37.90;;;;;;;-144.05;95.86;56940.16;5031955;28;20103;-78
2024/03/11 04:23:25;;;;;;;71.63;38.45;;;7.30;99.90;;;-144.05;95.75;56944.41;5032889;28;20037;-78
2024/03/11 04:25:51;;;;;;;71.53;39.42;;;6.50;99.90;;;-144.05;96.49;56950.78;5031328;28;20099;-76
2024/03/11 04:28:18;;;;;;;79.30;42.22;;;6.70;99.90;;;-144.05;95.91;56976.28;5032913;28;20494;-78
2024/03/11 04:30:47;;;;;;;82.95;43.60;;;6.60;99.90;;;-144.05;96.66;56944.41;5032473;28;20129;-78
2024/03/11 04:33:17;;;;;;;71.55;39.08;;;;;;;-144.05;96.90;56946.53;5034293;28;20033;-77
2024/03/11 04:35:43;;;;;;;73.70;40.72;;;7.10;99.90;;;-144.05;96.92;56961.41;5027024;28;20022;-78
2024/03/11 04:38:10;;;;;;;82.72;42.20;;;7.30;99.90;;;-144.05;96.22;56948.66;5033550;28;20029;-78
2024/03/11 04:40:40;;;;;;;75.45;40.72;;;6.80;99.90;;;-144.05;95.98;56935.91;5034340;28;20029;-79
2024/03/11 04:43:07;;;;;;;73.72;39.67;;;7.20;99.90;;;-144.05;96.03;56950.78;5033930;28;20046;-79
2024/03/11 04:45:37;;;;;;;74.05;40.05;;;7.90;99.90;;;-144.05;96.24;56916.81;5045425;28;20028;-80
2024/03/11 04:48:05;;;;;;;81.85;43.40;;;6.50;99.90;;;-144.05;96.09;56967.78;5037367;28;20028;-81
2024/03/11 04:50:33;;;;;;;88.28;45.38;;;6.90;99.90;;;-144.05;96.62;56931.66;5037552;28;20372;-80
2024/03/11 04:53:03;;;;;;;85.53;45.00;;;7.30;99.90;;;-144.05;96.69;56921.06;5034942;28;20030;-81
2024/03/11 04:55:31;;;;;;;90.18;48.95;;;7.40;99.90;;;-144.05;97.28;56972.03;5035996;28;20029;-78
2024/03/11 04:57:59;;;;;;;92.57;47.20;;;7.40;99.90;;;-144.05;97.26;56942.28;5034179;28;20025;-78
2024/03/11 05:00:28;;;;;;;99.80;48.28;;;7.90;99.90;;;-144.05;97.55;56955.03;5032304;28;20025;-78
2024/03/11 05:02:56;;;;;;;83.65;44.22;;;7.70;99.90;;;-144.05;97.68;56972.03;5034090;28;20048;-78
2024/03/11 05:05:25;;;;;;;92.80;48.33;;;;;;;-144.05;97.48;56961.41;5035513;28;20030;-78
2024/03/11 05:07:51;;;;;;;90.68;47.50;;;8.40;99.90;;;-144.05;97.81;56955.03;5034466;28;20116;-79
2024/03/11 05:10:18;;;;;;;82.25;44.92;;;;;;;-144.05;97.48;56963.53;5035665;28;20033;-78
2024/03/11 05:12:45;;;;;;;84.93;44.38;;;;;;;-144.05;97.16;56957.16;5033218;28;20026;-77
2024/03/11 05:15:12;;;;;;;86.00;46.15;;;8.40;99.90;;;-144.05;97.89;56963.53;5034847;28;20032;-78
2024/03/11 05:17:38;;;;;;;86.25;44.88;;;6.80;99.90;;;-144.05;97.91;56959.28;5035195;28;20171;-78
2024/03/11 05:20:11;;;;;;;90.60;47.00;;;6.70;99.90;;;-144.05;97.92;56927.41;5034424;28;20101;-81
2024/03/11 05:22:50;;;;;;;96.75;46.70;;;7.10;99.90;;;-144.05;97.77;56948.66;5033957;28;20052;-78
2024/03/11 05:25:17;;;;;;;86.55;45.60;;;7.10;99.90;;;-144.05;98.59;56940.16;5035842;28;20505;-78
2024/03/11 05:27:47;;;;;;;89.78;45.30;;;8.60;99.90;;;-144.05;98.10;56955.03;5027384;28;20108;-80
2024/03/11 05:30:15;;;;;;;84.35;44.30;;;7.50;99.90;;;-144.05;98.34;56946.53;5033872;28;20115;-80
2024/03/11 05:32:41;;;;;;;96.10;47.60;;;6.40;99.90;;;-144.05;98.45;56948.66;5050595;28;20030;-79
2024/03/11 05:35:07;;;;;;;88.10;45.60;;;6.80;99.90;;;-144.05;98.72;56959.28;5033887;28;20025;-80
2024/03/11 05:37:33;;;;;;;99.93;48.47;;;7.40;99.90;;;-144.05;99.78;56944.41;5033569;28;20105;-79
2024/03/11 05:39:59;;;;;;;96.18;48.17;;;7.40;99.90;;;-144.05;99.73;56944.41;5034581;28;20455;-79
2024/03/11 05:42:25;;;;;;;90.15;45.50;;;8.50;99.90;;;-144.05;99.40;56974.16;5040063;28;20030;-79
2024/03/11 05:44:55;;;;;;;88.68;46.17;;;6.60;99.90;;;-144.05;98.78;56938.03;5046069;28;20055;-79
2024/03/11 05:47:25;;;;;;;86.55;45.90;;;7.50;99.90;;;-144.05;98.00;56946.53;5040581;28;20056;-81
2024/03/11 05:49:53;;;;;;;97.18;46.60;;;7.30;99.90;;;-144.05;98.04;56950.78;5038622;28;20025;-78
2024/03/11 05:52:25;;;;;;;89.93;44.60;;;;;;;-144.05;98.18;56952.91;5040210;28;20029;-80
2024/03/11 05:54:54;;;;;;;87.72;45.13;;;7.60;99.90;;;-144.05;97.62;56959.28;5049651;28;20045;-80
2024/03/11 05:57:29;;;;;;;87.80;44.95;;;7.80;99.90;;;-144.05;97.55;56948.66;5052242;28;20022;-82
2024/03/11 05:59:56;;;;;;;89.53;44.95;;;;;;;-144.05;98.73;56946.53;5045069;28;20173;-81
2024/03/11 06:02:23;;;;;;;85.07;44.67;;;7.90;99.90;;;-144.05;99.01;56963.53;5046220;28;20029;-80
2024/03/11 06:04:49;;;;;;;86.05;44.53;;;8.10;99.90;;;-144.05;99.01;56950.78;5041158;28;20104;-80
2024/03/11 06:07:23;;;;;;;82.95;42.85;;;8.40;99.90;;;-144.05;99.04;56933.78;5040672;28;20501;-80
2024/03/11 06:09:52;;;;;;;87.78;44.97;;;6.90;99.90;;;-144.05;98.22;56955.03;5046073;28;20530;-82
2024/03/11 06:12:19;;;;;;;80.30;42.38;;;;;;;-144.05;97.82;56927.41;5051826;28;20047;-81
2024/03/11 06:14:47;;;;;;;83.53;42.22;;;6.80;99.90;;;-144.05;97.91;56940.16;5044391;28;20478;-80
2024/03/11 06:17:13;;;;;;;87.90;44.00;;;;;;;-144.05;98.30;56957.16;5051986;28;20033;-79
2024/03/11 06:19:39;;;;;;;85.47;44.47;;;6.50;99.90;;;-144.05;98.32;56974.16;5047419;28;20041;-76
2024/03/11 06:22:07;;;;;;;85.28;44.75;;;;;;;-144.05;98.17;56959.28;5040970;28;20032;-79
2024/03/11 06:24:33;;;;;;;83.68;41.97;;;7.60;99.90;;;-144.05;98.32;56923.19;5042467;28;20405;-79
2024/03/11 06:26:59;;;;;;;84.32;42.22;;;7.00;99.90;;;-144.05;98.11;56942.28;5042709;28;20060;-77
2024/03/11 06:29:30;;;;;;;86.40;45.22;;;;;;;-144.05;97.85;56974.16;5038611;28;20041;-78
2024/03/11 06:31:58;;;;;;;85.18;40.50;;;6.70;99.90;;;-144.05;98.30;56944.41;5040742;28;20028;-78
2024/03/11 06:34:26;;;;;;;85.03;43.40;;;7.20;99.90;;;-144.05;98.16;56982.66;5042912;28;20036;-77
2024/03/11 06:36:52;;;;;;;84.20;40.47;;;8.50;99.90;;;-144.05;98.11;56952.91;5041420;28;20021;-77
2024/03/11 06:39:18;;;;;;;85.75;44.58;;;;;;;-144.05;98.35;56974.16;5040926;28;20079;-77
2024/03/11 06:41:44;;;;;;;86.00;44.08;;;6.90;99.90;;;-144.05;98.50;56961.41;5057051;28;20028;-80
2024/03/11 06:44:11;;;;;;;84.60;42.80;;;;;;;-144.05;97.92;56952.91;5046218;28;20414;-78
2024/03/11 06:46:37;;;;;;;82.60;41.33;;;6.30;99.90;;;-144.05;97.83;56946.53;5042023;28;20036;-80
2024/03/11 06:49:06;;;;;;;83.38;42.83;;;7.70;99.90;;;-144.05;97.84;56978.41;5053113;28;20026;-77
2024/03/11 06:51:32;;;;;;;94.38;43.53;;;;;;;-144.05;98.22;56967.78;5043586;28;20112;-79
2024/03/11 06:54:01;;;;;;;85.65;41.33;;;;;;;-144.05;97.64;56938.03;5040127;28;20055;-76
2024/03/11 06:56:27;;;;;;;81.88;40.95;;;7.10;99.90;;;-144.05;97.40;56946.53;5040744;28;20033;-76
2024/03/11 06:58:54;;;;;;;82.65;41.38;;;6.80;99.90;;;-144.05;97.50;56944.41;5042978;28;20033;-76
2024/03/11 07:01:22;;;;;;;80.20;41.35;;;6.50;99.90;;;-144.05;97.43;56942.28;5042583;28;20511;-79
2024/03/11 07:03:48;;;;;;;76.63;39.25;;;;;;;-144.05;97.54;56961.41;5047066;28;20108;-78
2024/03/11 07:06:14;;;;;;;78.03;39.80;;;7.10;99.90;;;-144.05;97.68;56921.06;5045468;28;20093;-78
2024/03/11 07:08:39;;;;;;;78.80;40.97;;;6.60;99.90;;;-144.05;97.83;56940.16;5040393;28;20064;-78
2024/03/11 07:11:06;;;;;;;79.60;39.50;;;7.80;99.90;;;-144.05;97.58;56935.91;5040112;28;20104;-77
2024/03/11 07:13:32;;;;;;;78.43;40.08;;;6.60;99.90;;;-144.05;97.66;56944.41;5041337;28;20494;-77
2024/03/11 07:15:59;;;;;;;80.78;41.33;;;;;;;-144.05;97.89;56961.41;5051487;28;20048;-76
2024/03/11 07:18:26;;;;;;;78.60;41.03;;;7.70;99.90;;;-144.05;97.91;56955.03;5042413;28;20037;-80
2024/03/11 07:20:57;;;;;;;76.57;40.47;;;8.60;99.90;;;-144.05;97.69;56952.91;5040481;28;20025;-79
2024/03/11 07:23:28;;;;;;;76.70;39.50;;;8.70;99.90;;;-144.05;97.73;56959.28;5041503;28;20029;-79
2024/03/11 07:25:59;;;;;;;76.50;39.90;;;6.70;99.90;;;-144.05;97.77;56927.41;5040902;28;20067;-79
2024/03/11 07:28:28;;;;;;;76.30;39.20;;;8.80;99.90;;;-144.05;97.61;56944.41;5052821;28;20033;-78
2024/03/11 07:30:55;;;;;;;67.05;36.75;;;7.60;99.90;;;-144.05;97.69;56940.16;5044313;28;20068;-81
2024/03/11 07:33:22;;;;;;;75.90;39.50;;;;;;;-144.05;97.66;56942.28;5043476;28;20025;-80
2024/03/11 07:35:52;;;;;;;67.55;34.63;;;8.30;99.90;;;-144.05;97.71;56957.16;5047086;28;20474;-80
2024/03/11 07:38:20;;;;;;;74.47;38.45;;;;;;;-144.05;97.94;56950.78;5042708;28;20067;-78
2024/03/11 07:40:46;;;;;;;68.57;35.25;;;8.40;99.90;;;-144.05;97.71;56940.16;5040572;28;20028;-78
2024/03/11 07:43:13;;;;;;;64.50;35.20;;;;;;;-144.05;97.69;56912.56;5051914;28;20057;-80
2024/03/11 07:45:40;;;;;;;67.13;34.60;;;8.60;99.90;;;-144.05;97.80;56940.16;5041775;28;20044;-79
2024/03/11 07:48:10;;;;;;;69.85;36.53;;;6.40;99.90;;;-144.05;97.59;56908.31;5040188;28;20029;-80
2024/03/11 07:50:37;;;;;;;67.95;36.15;;;8.90;99.90;;;-144.05;97.81;56938.03;5041347;28;20037;-82
2024/03/11 07:53:04;;;;;;;66.07;35.35;;;6.30;99.90;;;-144.05;97.86;56978.41;5037004;28;20029;-77
2024/03/11 07:55:30;;;;;;;64.95;35.65;;;8.60;99.90;;;-144.05;97.93;56955.03;5040035;28;20027;-78
2024/03/11 07:57:56;;;;;;;66.68;34.08;;;9.00;99.90;;;-144.05;98.12;56955.03;5042840;28;20026;-78
2024/03/11 08:00:29;;;;;;;66.32;34.13;;;4.90;99.90;;;-144.05;97.86;56959.28;5042139;28;20060;-78
2024/03/11 08:03:00;;;;;;;62.53;32.30;;;7.30;99.90;;;-144.05;97.76;56967.78;5045774;28;20033;-79
2024/03/11 08:05:27;;;;;;;62.60;32.10;;;6.70;99.90;;;-144.05;97.98;56933.78;5040124;28;20032;-79
2024/03/11 08:07:54;;;;;;;61.00;33.53;;;6.70;99.90;;;-144.05;97.91;56965.66;5040391;28;20036;-79
2024/03/11 08:10:20;;;;;;;62.28;33.58;;;6.30;99.90;;;-144.05;98.10;56948.66;5041032;28;20510;-77
2024/03/11 08:12:48;;;;;;;60.90;32.03;;;8.70;99.90;;;-144.05;98.05;56986.91;5040713;28;20103;-79
2024/03/11 08:15:15;;;;;;;61.38;33.22;;;7.90;99.90;;;-144.05;97.57;56935.91;5041140;28;20068;-78
2024/03/11 08:17:46;;;;;;;59.92;30.73;;;7.30;99.90;;;-144.05;97.79;56944.41;5050579;28;20088;-79
2024/03/11 08:20:17;;;;;;;57.75;30.17;;;6.90;99.90;;;-144.05;97.40;56942.28;5038748;28;20120;-78
2024/03/11 08:22:52;;;;;;;58.47;30.27;;;6.50;99.90;;;-144.05;97.40;56969.91;5050871;28;20025;-80
2024/03/11 08:25:27;;;;;;;51.40;27.90;;;6.10;99.90;;;-144.05;97.38;56946.53;5041897;28;20044;-78
2024/03/11 08:27:54;;;;;;;50.67;27.02;;;6.20;99.90;;;-144.05;97.36;56940.16;5035178;28;20112;-77
2024/03/11 08:30:25;;;;;;;47.92;25.98;;;8.00;99.90;;;-144.05;97.23;56944.41;5042329;28;20057;-76
2024/03/11 08:32:51;;;;;;;50.47;27.92;;;8.00;99.90;;;-144.05;96.98;56946.53;5035248;28;20067;-80
2024/03/11 08:35:23;;;;;;;52.30;29.50;;;8.00;99.90;;;-144.05;97.27;56969.91;5041889;28;20034;-77
2024/03/11 08:37:52;;;;;;;52.03;28.38;;;8.70;99.90;;;-144.05;97.25;56944.41;5039999;28;20026;-78
2024/03/11 08:40:21;;;;;;;58.35;30.48;;;6.40;99.90;;;-144.05;97.05;56955.03;5050029;28;20052;-79
2024/03/11 08:42:48;;;;;;;53.72;28.15;;;;;;;-144.05;97.05;56961.41;5039583;28;20045;-77
2024/03/11 08:45:23;;;;;;;55.40;30.20;;;6.60;99.90;;;-144.05;97.04;56959.28;5035059;28;20116;-77
2024/03/11 08:47:50;;;;;;;55.70;29.25;;;6.80;99.90;;;-144.05;96.98;56961.41;5045778;28;20483;-79
2024/03/11 08:50:17;;;;;;;56.55;29.17;;;8.80;99.90;;;-144.05;97.03;56940.16;5041587;28;20048;-78
2024/03/11 08:52:46;;;;;;;50.47;28.20;;;8.20;99.90;;;-144.05;96.81;56938.03;5040739;28;20498;-78
2024/03/11 08:55:15;;;;;;;48.97;25.80;;;8.10;99.90;;;-144.05;97.00;56967.78;5038229;28;20060;-78
2024/03/11 08:57:42;;;;;;;48.55;26.13;;;7.00;99.90;;;-144.05;96.76;56959.28;5042097;28;20029;-79
2024/03/11 09:00:12;;;;;;;53.17;27.98;;;6.80;99.90;;;-144.05;96.71;56935.91;5038900;28;20021;-79
2024/03/11 09:02:39;;;;;;;56.00;27.75;;;8.90;99.90;;;-144.05;96.39;56921.06;5039570;28;20033;-80
2024/03/11 09:05:18;;;;;;;50.33;27.60;;;7.90;99.90;;;-144.05;96.49;56940.16;5035265;28;20728;-79
2024/03/11 09:07:45;;;;;;;51.90;28.02;;;7.40;99.90;;;-144.05;96.42;56955.03;5038605;28;20060;-77
2024/03/11 09:10:14;;;;;;;49.15;28.02;;;7.50;99.90;;;-144.05;96.03;56946.53;5041227;28;20099;-79
2024/03/11 09:12:40;;;;;;;54.97;26.30;;;10.60;99.90;;;-144.05;96.64;56957.16;5036879;28;20025;-79
2024/03/11 09:15:12;;;;;;;52.63;26.95;;;7.20;99.90;;;-144.05;96.80;56972.03;5039862;28;20100;-78
2024/03/11 09:17:44;;;;;;;56.35;28.73;;;10.60;99.90;;;-144.05;96.63;56931.66;5041198;28;20095;-75
2024/03/11 09:20:15;;;;;;;52.10;28.30;;;8.30;99.90;;;-144.05;96.72;56944.41;5044860;28;20033;-78
2024/03/11 09:22:51;;;;;;;57.20;28.98;;;8.30;99.90;;;-144.05;97.49;56950.78;5044196;28;20041;-79
2024/03/11 09:25:23;;;;;;;;;;;8.30;99.90;;;-144.05;96.69;56942.28;5046430;28;20052;-78
2024/03/11 09:28:00;;;;;;;60.40;29.25;;;6.80;99.90;;;-144.05;96.24;56955.03;5043194;28;20317;-79
2024/03/11 09:30:31;;;;;;;58.42;28.63;;;8.20;99.90;;;-144.05;95.59;56942.28;5045793;28;20029;-78
2024/03/11 09:32:57;;;;;;;60.70;30.40;;;6.90;99.90;;;-144.05;95.72;56950.78;5040390;28;20018;-78
2024/03/11 09:35:24;;;;;;;66.63;30.83;;;8.30;99.90;;;-144.05;96.30;56950.78;5046387;28;20025;-78
2024/03/11 09:37:52;;;;;;;62.55;30.85;;;6.90;99.90;;;-144.05;96.46;56948.66;5044481;28;20731;-79
2024/03/11 09:40:23;;;;;;;61.00;30.98;;;8.20;99.90;;;-144.05;96.50;56933.78;5046152;28;20037;-76
2024/03/11 09:42:55;;;;;;;64.88;31.75;;;6.30;99.90;;;-144.05;97.13;56969.91;5042304;28;20124;-79
2024/03/11 09:45:27;;;;;;;72.95;31.02;;;7.30;99.90;;;-144.05;96.90;56965.66;5047112;28;20037;-78
2024/03/11 09:47:57;;;;;;;68.18;33.13;;;;;;;-144.05;97.18;56969.91;5041393;28;20117;-77
2024/03/11 09:50:32;;;;;;;67.53;32.33;;;9.00;99.90;;;-144.05;96.77;56942.28;5043669;28;20418;-79
2024/03/11 09:53:12;;;;;;;68.25;33.83;;;8.20;99.90;;;-144.05;96.39;56950.78;5052930;28;20071;-78
2024/03/11 09:55:43;;;;;;;71.10;33.25;;;;;;;-144.05;96.42;56952.91;5042261;28;20029;-78
2024/03/11 09:58:15;;;;;;;72.95;31.88;;;8.20;99.90;;;-144.05;96.55;56952.91;5047227;28;20029;-76
2024/03/11 10:00:49;;;;;;;81.50;34.03;;;6.60;99.90;;;-144.05;97.08;56952.91;5057320;28;20496;-82
2024/03/11 10:03:20;;;;;;;73.72;33.20;;;8.20;99.90;;;-144.05;96.87;56933.78;5055122;28;20025;-80
2024/03/11 10:06:04;;;;;;;70.82;33.65;;;6.50;99.90;;;-144.05;96.26;56967.78;5049904;28;20089;-77
2024/03/11 10:08:31;;;;;;;83.05;36.53;;;6.80;99.90;;;-144.05;96.02;56963.53;5058619;28;20025;-80
2024/03/11 10:11:21;;;;;;;73.13;35.20;;;8.80;99.90;;;-144.05;96.22;56965.66;5042267;28;20025;-77
2024/03/11 10:13:55;;;;;;;74.13;34.88;;;7.00;99.90;;;-144.05;95.63;56927.41;5042833;28;20029;-78
2024/03/11 10:16:27;;;;;;;70.22;32.45;;;8.90;99.90;;;-144.05;94.84;56944.41;5047082;28;20049;-78
2024/03/11 10:19:11;;;;;;;66.93;32.80;;;7.30;99.90;;;-144.05;95.00;56950.78;5045729;28;20104;-78